sensor_id;sensor_type;location;lat;lon;timestamp;temperature;humidity
14192;DHT22;7177;48.572;7.838;2022-12-15T00:02:20;-0.70;99.90
14192;DHT22;7177;48.572;7.838;2022-12-15T00:05:04;-0.60;99.90
14192;DHT22;7177;48.572;7.838;2022-12-15T00:07:48;-0.60;99.90
14192;DHT22;7177;48.572;7.838;2022-12-15T00:10:32;-0.70;99.90
14192;DHT22;7177;48.572;7.838;2022-12-15T00:13:16;-0.70;99.90
14192;DHT22;7177;48.572;7.838;2022-12-15T00:16:01;-0.80;99.90
14192;DHT22;7177;48.572;7.838;2022-12-15T00:18:45;-0.70;99.90
14192;DHT22;7177;48.572;7.838;2022-12-15T00:21:29;-0.70;99.90
14192;DHT22;7177;48.572;7.838;2022-12-15T00:24:13;-0.70;99.90
14192;DHT22;7177;48.572;7.838;2022-12-15T00:26:57;-0.60;99.90
14192;DHT22;7177;48.572;7.838;2022-12-15T00:29:41;-0.60;99.90
14192;DHT22;7177;48.572;7.838;2022-12-15T00:32:25;-0.60;99.90
14192;DHT22;7177;48.572;7.838;2022-12-15T00:35:10;-0.60;99.90
14192;DHT22;7177;48.572;7.838;2022-12-15T00:37:54;-0.70;99.90
14192;DHT22;7177;48.572;7.838;2022-12-15T00:40:38;-0.70;99.90
14192;DHT22;7177;48.572;7.838;2022-12-15T00:43:03;-0.80;99.90
14192;DHT22;7177;48.572;7.838;2022-12-15T00:45:29;-0.90;99.90
14192;DHT22;7177;48.572;7.838;2022-12-15T00:48:15;-0.90;99.90
14192;DHT22;7177;48.572;7.838;2022-12-15T00:50:43;-0.90;99.90
14192;DHT22;7177;48.572;7.838;2022-12-15T00:53:22;-0.90;99.90
14192;DHT22;7177;48.572;7.838;2022-12-15T00:56:06;-0.80;99.90
14192;DHT22;7177;48.572;7.838;2022-12-15T00:58:51;-0.80;99.90
14192;DHT22;7177;48.572;7.838;2022-12-15T01:01:36;-0.80;99.90
14192;DHT22;7177;48.572;7.838;2022-12-15T01:04:20;-0.80;99.90
14192;DHT22;7177;48.572;7.838;2022-12-15T01:07:04;-0.70;99.90
14192;DHT22;7177;48.572;7.838;2022-12-15T01:09:48;-0.70;99.90
14192;DHT22;7177;48.572;7.838;2022-12-15T01:12:32;-0.70;99.90
14192;DHT22;7177;48.572;7.838;2022-12-15T01:15:16;-0.70;99.90
14192;DHT22;7177;48.572;7.838;2022-12-15T01:18:00;-0.70;99.90
14192;DHT22;7177;48.572;7.838;2022-12-15T01:20:44;-0.70;99.90
14192;DHT22;7177;48.572;7.838;2022-12-15T01:23:18;-0.70;99.90
14192;DHT22;7177;48.572;7.838;2022-12-15T01:25:43;-0.80;99.90
14192;DHT22;7177;48.572;7.838;2022-12-15T01:28:09;-0.90;99.90
14192;DHT22;7177;48.572;7.838;2022-12-15T01:30:34;-0.90;99.90
14192;DHT22;7177;48.572;7.838;2022-12-15T01:33:00;-0.90;99.90
14192;DHT22;7177;48.572;7.838;2022-12-15T01:35:25;-0.90;99.90
14192;DHT22;7177;48.572;7.838;2022-12-15T01:37:52;-0.90;99.90
14192;DHT22;7177;48.572;7.838;2022-12-15T01:40:19;-1.10;99.90
14192;DHT22;7177;48.572;7.838;2022-12-15T01:43:10;-1.10;99.90
14192;DHT22;7177;48.572;7.838;2022-12-15T01:45:48;-1.10;99.90
14192;DHT22;7177;48.572;7.838;2022-12-15T01:48:18;-1.20;99.90
14192;DHT22;7177;48.572;7.838;2022-12-15T01:50:56;-1.10;99.90
14192;DHT22;7177;48.572;7.838;2022-12-15T01:53:23;-0.70;99.90
14192;DHT22;7177;48.572;7.838;2022-12-15T01:55:49;-1.00;99.90
14192;DHT22;7177;48.572;7.838;2022-12-15T01:58:16;-1.00;99.90
14192;DHT22;7177;48.572;7.838;2022-12-15T02:00:42;-1.00;99.90
14192;DHT22;7177;48.572;7.838;2022-12-15T02:03:08;-1.00;99.90
14192;DHT22;7177;48.572;7.838;2022-12-15T02:05:35;-1.00;99.90
14192;DHT22;7177;48.572;7.838;2022-12-15T02:08:02;-1.10;99.90
14192;DHT22;7177;48.572;7.838;2022-12-15T02:10:52;-1.10;99.90
14192;DHT22;7177;48.572;7.838;2022-12-15T02:13:27;-1.20;99.90
14192;DHT22;7177;48.572;7.838;2022-12-15T02:19:19;-1.20;99.90
14192;DHT22;7177;48.572;7.838;2022-12-15T02:22:22;-1.20;99.90
14192;DHT22;7177;48.572;7.838;2022-12-15T02:25:04;-1.10;99.90
14192;DHT22;7177;48.572;7.838;2022-12-15T02:27:54;-1.00;99.90
14192;DHT22;7177;48.572;7.838;2022-12-15T02:33:06;-0.90;99.90
14192;DHT22;7177;48.572;7.838;2022-12-15T02:38:33;-1.00;99.90
14192;DHT22;7177;48.572;7.838;2022-12-15T02:41:01;-1.00;99.90
14192;DHT22;7177;48.572;7.838;2022-12-15T02:43:29;-1.00;99.90
14192;DHT22;7177;48.572;7.838;2022-12-15T02:48:58;-1.00;99.90
14192;DHT22;7177;48.572;7.838;2022-12-15T02:55:03;-1.00;99.90
14192;DHT22;7177;48.572;7.838;2022-12-15T02:57:19;-0.90;99.90
14192;DHT22;7177;48.572;7.838;2022-12-15T03:00:04;-1.00;99.90
14192;DHT22;7177;48.572;7.838;2022-12-15T03:02:32;-1.00;99.90
14192;DHT22;7177;48.572;7.838;2022-12-15T03:04:59;-1.00;99.90
14192;DHT22;7177;48.572;7.838;2022-12-15T03:07:26;-1.00;99.90
14192;DHT22;7177;48.572;7.838;2022-12-15T03:09:57;-1.00;99.90
14192;DHT22;7177;48.572;7.838;2022-12-15T03:12:24;-1.00;99.90
14192;DHT22;7177;48.572;7.838;2022-12-15T03:14:49;-1.00;99.90
14192;DHT22;7177;48.572;7.838;2022-12-15T03:17:15;-1.00;99.90
14192;DHT22;7177;48.572;7.838;2022-12-15T03:19:41;-1.00;99.90
14192;DHT22;7177;48.572;7.838;2022-12-15T03:22:06;-1.00;99.90
14192;DHT22;7177;48.572;7.838;2022-12-15T03:24:32;-1.00;99.90
14192;DHT22;7177;48.572;7.838;2022-12-15T03:26:57;-1.00;99.90
14192;DHT22;7177;48.572;7.838;2022-12-15T03:29:23;-1.00;99.90
14192;DHT22;7177;48.572;7.838;2022-12-15T03:31:49;-0.90;99.90
14192;DHT22;7177;48.572;7.838;2022-12-15T03:34:15;-0.90;99.90
14192;DHT22;7177;48.572;7.838;2022-12-15T03:36:40;-0.90;99.90
14192;DHT22;7177;48.572;7.838;2022-12-15T03:39:06;-0.90;99.90
14192;DHT22;7177;48.572;7.838;2022-12-15T03:41:32;-0.90;99.90
14192;DHT22;7177;48.572;7.838;2022-12-15T03:43:57;-1.00;99.90
14192;DHT22;7177;48.572;7.838;2022-12-15T03:46:23;-1.00;99.90
14192;DHT22;7177;48.572;7.838;2022-12-15T03:48:48;-1.00;99.90
14192;DHT22;7177;48.572;7.838;2022-12-15T03:51:14;-1.00;99.90
14192;DHT22;7177;48.572;7.838;2022-12-15T03:53:40;-1.00;99.90
14192;DHT22;7177;48.572;7.838;2022-12-15T03:56:06;-1.00;99.90
14192;DHT22;7177;48.572;7.838;2022-12-15T03:58:31;-1.00;99.90
14192;DHT22;7177;48.572;7.838;2022-12-15T04:00:57;-1.00;99.90
14192;DHT22;7177;48.572;7.838;2022-12-15T04:03:22;-1.00;99.90
14192;DHT22;7177;48.572;7.838;2022-12-15T04:05:48;-1.10;99.90
14192;DHT22;7177;48.572;7.838;2022-12-15T04:08:14;-1.00;99.90
14192;DHT22;7177;48.572;7.838;2022-12-15T04:10:39;-1.10;99.90
14192;DHT22;7177;48.572;7.838;2022-12-15T04:13:10;-1.30;99.90
14192;DHT22;7177;48.572;7.838;2022-12-15T04:15:37;-1.40;99.90
14192;DHT22;7177;48.572;7.838;2022-12-15T04:18:06;-1.40;99.90
14192;DHT22;7177;48.572;7.838;2022-12-15T04:20:32;-1.40;99.90
14192;DHT22;7177;48.572;7.838;2022-12-15T04:22:58;-1.40;99.90
14192;DHT22;7177;48.572;7.838;2022-12-15T04:25:24;-1.40;99.90
14192;DHT22;7177;48.572;7.838;2022-12-15T04:28:10;-1.40;99.90
14192;DHT22;7177;48.572;7.838;2022-12-15T04:31:00;-1.30;99.90
14192;DHT22;7177;48.572;7.838;2022-12-15T04:33:49;-1.30;99.90
14192;DHT22;7177;48.572;7.838;2022-12-15T04:36:36;-1.20;99.90
14192;DHT22;7177;48.572;7.838;2022-12-15T04:39:21;-1.20;99.90
14192;DHT22;7177;48.572;7.838;2022-12-15T04:42:06;-1.10;99.90
14192;DHT22;7177;48.572;7.838;2022-12-15T04:44:50;-1.10;99.90
14192;DHT22;7177;48.572;7.838;2022-12-15T04:47:34;-1.10;99.90
14192;DHT22;7177;48.572;7.838;2022-12-15T04:50:18;-1.20;99.90
14192;DHT22;7177;48.572;7.838;2022-12-15T04:53:11;-1.20;99.90
14192;DHT22;7177;48.572;7.838;2022-12-15T04:55:56;-1.30;99.90
14192;DHT22;7177;48.572;7.838;2022-12-15T04:58:40;-1.30;99.90
14192;DHT22;7177;48.572;7.838;2022-12-15T05:01:24;-1.20;99.90
14192;DHT22;7177;48.572;7.838;2022-12-15T05:04:08;0.30;99.90
14192;DHT22;7177;48.572;7.838;2022-12-15T05:06:53;-1.20;99.90
14192;DHT22;7177;48.572;7.838;2022-12-15T05:09:37;-1.30;99.90
14192;DHT22;7177;48.572;7.838;2022-12-15T05:12:21;-1.30;99.90
14192;DHT22;7177;48.572;7.838;2022-12-15T05:15:06;-1.30;99.90
14192;DHT22;7177;48.572;7.838;2022-12-15T05:17:50;-1.40;99.90
14192;DHT22;7177;48.572;7.838;2022-12-15T05:20:34;-1.40;99.90
14192;DHT22;7177;48.572;7.838;2022-12-15T05:23:18;-1.40;99.90
14192;DHT22;7177;48.572;7.838;2022-12-15T05:26:02;-1.50;99.90
14192;DHT22;7177;48.572;7.838;2022-12-15T05:28:46;-1.50;99.90
14192;DHT22;7177;48.572;7.838;2022-12-15T05:31:30;-1.40;99.90
14192;DHT22;7177;48.572;7.838;2022-12-15T05:34:15;-1.40;99.90
14192;DHT22;7177;48.572;7.838;2022-12-15T05:36:40;-1.40;99.90
14192;DHT22;7177;48.572;7.838;2022-12-15T05:39:06;-1.40;99.90
14192;DHT22;7177;48.572;7.838;2022-12-15T05:41:32;-1.40;99.90
14192;DHT22;7177;48.572;7.838;2022-12-15T05:43:57;-1.40;99.90
14192;DHT22;7177;48.572;7.838;2022-12-15T05:46:23;-1.40;99.90
14192;DHT22;7177;48.572;7.838;2022-12-15T05:48:48;-1.40;99.90
14192;DHT22;7177;48.572;7.838;2022-12-15T05:51:14;-1.30;99.90
14192;DHT22;7177;48.572;7.838;2022-12-15T05:53:40;-1.30;99.90
14192;DHT22;7177;48.572;7.838;2022-12-15T05:56:09;-1.30;99.90
14192;DHT22;7177;48.572;7.838;2022-12-15T05:58:35;-1.30;99.90
14192;DHT22;7177;48.572;7.838;2022-12-15T06:01:03;-1.30;99.90
14192;DHT22;7177;48.572;7.838;2022-12-15T06:03:29;-1.30;99.90
14192;DHT22;7177;48.572;7.838;2022-12-15T06:05:55;-1.30;99.90
14192;DHT22;7177;48.572;7.838;2022-12-15T06:08:21;-1.30;99.90
14192;DHT22;7177;48.572;7.838;2022-12-15T06:10:52;-1.30;99.90
14192;DHT22;7177;48.572;7.838;2022-12-15T06:13:19;-1.20;99.90
14192;DHT22;7177;48.572;7.838;2022-12-15T06:15:56;-1.20;99.90
14192;DHT22;7177;48.572;7.838;2022-12-15T06:18:24;-1.20;99.90
14192;DHT22;7177;48.572;7.838;2022-12-15T06:20:56;-0.50;99.90
14192;DHT22;7177;48.572;7.838;2022-12-15T06:23:22;-0.30;99.90
14192;DHT22;7177;48.572;7.838;2022-12-15T06:25:47;-0.50;99.90
14192;DHT22;7177;48.572;7.838;2022-12-15T06:28:13;-0.70;99.90
14192;DHT22;7177;48.572;7.838;2022-12-15T06:30:38;-0.90;99.90
14192;DHT22;7177;48.572;7.838;2022-12-15T06:33:04;-1.00;99.90
14192;DHT22;7177;48.572;7.838;2022-12-15T06:35:29;-1.10;99.90
14192;DHT22;7177;48.572;7.838;2022-12-15T06:37:55;-1.20;99.90
14192;DHT22;7177;48.572;7.838;2022-12-15T06:40:20;-1.30;99.90
14192;DHT22;7177;48.572;7.838;2022-12-15T06:42:46;-1.40;99.90
14192;DHT22;7177;48.572;7.838;2022-12-15T06:45:11;-1.30;99.90
14192;DHT22;7177;48.572;7.838;2022-12-15T06:47:38;-1.40;99.90
14192;DHT22;7177;48.572;7.838;2022-12-15T06:50:04;-1.40;99.90
14192;DHT22;7177;48.572;7.838;2022-12-15T06:52:29;-1.40;99.90
14192;DHT22;7177;48.572;7.838;2022-12-15T06:54:55;-1.40;99.90
14192;DHT22;7177;48.572;7.838;2022-12-15T06:57:20;-1.40;99.90
14192;DHT22;7177;48.572;7.838;2022-12-15T06:59:46;-1.50;99.90
14192;DHT22;7177;48.572;7.838;2022-12-15T07:02:15;-1.50;99.90
14192;DHT22;7177;48.572;7.838;2022-12-15T07:04:40;-1.40;99.90
14192;DHT22;7177;48.572;7.838;2022-12-15T07:07:11;-1.30;99.90
14192;DHT22;7177;48.572;7.838;2022-12-15T07:09:36;-1.30;99.90
14192;DHT22;7177;48.572;7.838;2022-12-15T07:12:02;-1.20;99.90
14192;DHT22;7177;48.572;7.838;2022-12-15T07:14:28;-1.30;99.90
14192;DHT22;7177;48.572;7.838;2022-12-15T07:16:53;-1.20;99.90
14192;DHT22;7177;48.572;7.838;2022-12-15T07:19:19;-1.20;99.90
14192;DHT22;7177;48.572;7.838;2022-12-15T07:21:44;-1.20;99.90
14192;DHT22;7177;48.572;7.838;2022-12-15T07:24:11;-1.20;99.90
14192;DHT22;7177;48.572;7.838;2022-12-15T07:26:37;-1.10;99.90
14192;DHT22;7177;48.572;7.838;2022-12-15T07:29:03;-1.10;99.90
14192;DHT22;7177;48.572;7.838;2022-12-15T07:31:29;-1.10;99.90
14192;DHT22;7177;48.572;7.838;2022-12-15T07:33:56;-1.00;99.90
14192;DHT22;7177;48.572;7.838;2022-12-15T07:36:22;-1.00;99.90
14192;DHT22;7177;48.572;7.838;2022-12-15T07:38:48;-0.90;99.90
14192;DHT22;7177;48.572;7.838;2022-12-15T07:41:13;-1.00;99.90
14192;DHT22;7177;48.572;7.838;2022-12-15T07:43:39;-1.00;99.90
14192;DHT22;7177;48.572;7.838;2022-12-15T07:46:05;-0.90;99.90
14192;DHT22;7177;48.572;7.838;2022-12-15T07:48:31;-0.90;99.90
14192;DHT22;7177;48.572;7.838;2022-12-15T07:50:57;-0.90;99.90
14192;DHT22;7177;48.572;7.838;2022-12-15T07:53:25;-0.90;99.90
14192;DHT22;7177;48.572;7.838;2022-12-15T07:55:57;-0.90;99.90
14192;DHT22;7177;48.572;7.838;2022-12-15T07:58:24;-0.90;99.90
14192;DHT22;7177;48.572;7.838;2022-12-15T08:00:50;-0.90;99.90
14192;DHT22;7177;48.572;7.838;2022-12-15T08:03:16;-1.00;99.90
14192;DHT22;7177;48.572;7.838;2022-12-15T08:05:42;-1.00;99.90
14192;DHT22;7177;48.572;7.838;2022-12-15T08:08:07;-1.00;99.90
14192;DHT22;7177;48.572;7.838;2022-12-15T08:10:33;-0.90;99.90
14192;DHT22;7177;48.572;7.838;2022-12-15T08:12:58;-0.90;99.90
14192;DHT22;7177;48.572;7.838;2022-12-15T08:15:24;-0.90;99.90
14192;DHT22;7177;48.572;7.838;2022-12-15T08:17:49;-0.80;99.90
14192;DHT22;7177;48.572;7.838;2022-12-15T08:20:15;-0.70;99.90
14192;DHT22;7177;48.572;7.838;2022-12-15T08:22:40;-0.70;99.90
14192;DHT22;7177;48.572;7.838;2022-12-15T08:25:06;-0.70;99.90
14192;DHT22;7177;48.572;7.838;2022-12-15T08:27:32;-0.70;99.90
14192;DHT22;7177;48.572;7.838;2022-12-15T08:29:57;-0.70;99.90
14192;DHT22;7177;48.572;7.838;2022-12-15T08:32:23;-0.80;99.90
14192;DHT22;7177;48.572;7.838;2022-12-15T08:34:49;-0.70;99.90
14192;DHT22;7177;48.572;7.838;2022-12-15T08:37:14;-0.70;99.90
14192;DHT22;7177;48.572;7.838;2022-12-15T08:39:40;-0.70;99.90
14192;DHT22;7177;48.572;7.838;2022-12-15T08:42:06;-0.60;99.90
14192;DHT22;7177;48.572;7.838;2022-12-15T08:44:32;-0.60;99.90
14192;DHT22;7177;48.572;7.838;2022-12-15T08:46:58;-0.60;99.90
14192;DHT22;7177;48.572;7.838;2022-12-15T08:49:23;-0.50;99.90
14192;DHT22;7177;48.572;7.838;2022-12-15T08:51:50;-0.10;99.90
14192;DHT22;7177;48.572;7.838;2022-12-15T08:54:16;0.10;99.90
14192;DHT22;7177;48.572;7.838;2022-12-15T08:56:42;0.10;99.90
14192;DHT22;7177;48.572;7.838;2022-12-15T08:59:08;0.20;99.90
14192;DHT22;7177;48.572;7.838;2022-12-15T09:01:34;0.20;99.90
14192;DHT22;7177;48.572;7.838;2022-12-15T09:04:04;0.00;99.90
14192;DHT22;7177;48.572;7.838;2022-12-15T09:06:32;-0.20;99.90
14192;DHT22;7177;48.572;7.838;2022-12-15T09:09:00;-0.20;99.90
14192;DHT22;7177;48.572;7.838;2022-12-15T09:11:27;-0.30;99.90
14192;DHT22;7177;48.572;7.838;2022-12-15T09:13:53;-0.30;99.90
14192;DHT22;7177;48.572;7.838;2022-12-15T09:16:19;-0.20;99.90
14192;DHT22;7177;48.572;7.838;2022-12-15T09:18:48;-0.10;99.90
14192;DHT22;7177;48.572;7.838;2022-12-15T09:21:15;0.00;99.90
14192;DHT22;7177;48.572;7.838;2022-12-15T09:23:41;0.10;99.90
14192;DHT22;7177;48.572;7.838;2022-12-15T09:26:09;0.10;99.90
14192;DHT22;7177;48.572;7.838;2022-12-15T09:28:36;0.10;99.90
14192;DHT22;7177;48.572;7.838;2022-12-15T09:31:28;0.20;99.90
14192;DHT22;7177;48.572;7.838;2022-12-15T09:33:56;0.20;99.90
14192;DHT22;7177;48.572;7.838;2022-12-15T09:36:22;0.10;99.90
14192;DHT22;7177;48.572;7.838;2022-12-15T09:38:48;-0.10;99.90
14192;DHT22;7177;48.572;7.838;2022-12-15T09:47:09;-2.70;99.90
14192;DHT22;7177;48.572;7.838;2022-12-15T09:49:57;-0.30;99.90
14192;DHT22;7177;48.572;7.838;2022-12-15T09:52:28;-0.30;99.90
14192;DHT22;7177;48.572;7.838;2022-12-15T09:54:56;-0.40;99.90
14192;DHT22;7177;48.572;7.838;2022-12-15T09:57:24;-0.30;99.90
14192;DHT22;7177;48.572;7.838;2022-12-15T10:02:46;-0.10;99.90
14192;DHT22;7177;48.572;7.838;2022-12-15T10:08:19;0.20;99.90
14192;DHT22;7177;48.572;7.838;2022-12-15T10:16:23;0.60;99.90
14192;DHT22;7177;48.572;7.838;2022-12-15T10:21:31;0.80;99.90
14192;DHT22;7177;48.572;7.838;2022-12-15T10:24:21;0.90;99.90
14192;DHT22;7177;48.572;7.838;2022-12-15T10:27:01;0.90;99.90
14192;DHT22;7177;48.572;7.838;2022-12-15T10:29:43;1.00;99.90
14192;DHT22;7177;48.572;7.838;2022-12-15T10:32:21;1.00;99.90
14192;DHT22;7177;48.572;7.838;2022-12-15T10:34:49;1.10;99.90
14192;DHT22;7177;48.572;7.838;2022-12-15T10:37:17;1.10;99.90
14192;DHT22;7177;48.572;7.838;2022-12-15T10:39:45;1.00;99.90
14192;DHT22;7177;48.572;7.838;2022-12-15T10:42:23;1.00;99.90
14192;DHT22;7177;48.572;7.838;2022-12-15T10:44:54;0.90;99.90
14192;DHT22;7177;48.572;7.838;2022-12-15T10:47:28;0.90;99.90
14192;DHT22;7177;48.572;7.838;2022-12-15T10:50:16;1.80;99.90
14192;DHT22;7177;48.572;7.838;2022-12-15T10:52:42;1.90;99.90
14192;DHT22;7177;48.572;7.838;2022-12-15T10:55:41;1.60;99.90
14192;DHT22;7177;48.572;7.838;2022-12-15T10:58:21;1.20;99.90
14192;DHT22;7177;48.572;7.838;2022-12-15T11:00:48;0.90;99.90
14192;DHT22;7177;48.572;7.838;2022-12-15T11:03:29;0.90;99.90
14192;DHT22;7177;48.572;7.838;2022-12-15T11:05:59;0.90;99.90
14192;DHT22;7177;48.572;7.838;2022-12-15T11:08:25;1.00;99.90
14192;DHT22;7177;48.572;7.838;2022-12-15T11:10:56;1.00;99.90
14192;DHT22;7177;48.572;7.838;2022-12-15T11:13:40;1.00;99.90
14192;DHT22;7177;48.572;7.838;2022-12-15T11:16:16;0.90;99.90
14192;DHT22;7177;48.572;7.838;2022-12-15T11:18:48;0.80;99.90
14192;DHT22;7177;48.572;7.838;2022-12-15T11:21:21;0.70;99.90
14192;DHT22;7177;48.572;7.838;2022-12-15T11:26:35;0.30;99.90
14192;DHT22;7177;48.572;7.838;2022-12-15T11:29:47;0.20;99.90
14192;DHT22;7177;48.572;7.838;2022-12-15T11:32:20;0.00;99.90
14192;DHT22;7177;48.572;7.838;2022-12-15T11:34:47;0.00;99.90
14192;DHT22;7177;48.572;7.838;2022-12-15T11:50:54;0.60;99.90
14192;DHT22;7177;48.572;7.838;2022-12-15T12:15:53;2.10;99.90
14192;DHT22;7177;48.572;7.838;2022-12-15T12:18:50;2.10;99.90
14192;DHT22;7177;48.572;7.838;2022-12-15T12:21:30;2.10;99.90
14192;DHT22;7177;48.572;7.838;2022-12-15T12:27:08;2.00;99.90
14192;DHT22;7177;48.572;7.838;2022-12-15T12:29:43;2.00;99.90
14192;DHT22;7177;48.572;7.838;2022-12-15T12:32:10;2.00;99.90
14192;DHT22;7177;48.572;7.838;2022-12-15T12:35:03;1.90;99.90
14192;DHT22;7177;48.572;7.838;2022-12-15T12:37:37;1.80;99.90
14192;DHT22;7177;48.572;7.838;2022-12-15T12:42:59;1.60;99.90
14192;DHT22;7177;48.572;7.838;2022-12-15T12:45:47;1.60;99.90
14192;DHT22;7177;48.572;7.838;2022-12-15T12:48:47;1.50;99.90
14192;DHT22;7177;48.572;7.838;2022-12-15T12:51:48;1.60;99.90
14192;DHT22;7177;48.572;7.838;2022-12-15T12:56:59;1.70;99.90
14192;DHT22;7177;48.572;7.838;2022-12-15T13:01:55;1.70;99.90
14192;DHT22;7177;48.572;7.838;2022-12-15T13:04:42;1.40;99.90
14192;DHT22;7177;48.572;7.838;2022-12-15T13:07:29;1.30;99.90
14192;DHT22;7177;48.572;7.838;2022-12-15T13:12:48;1.30;99.90
14192;DHT22;7177;48.572;7.838;2022-12-15T13:15:33;1.30;99.90
14192;DHT22;7177;48.572;7.838;2022-12-15T13:18:21;1.20;99.90
14192;DHT22;7177;48.572;7.838;2022-12-15T13:20:48;1.10;99.90
14192;DHT22;7177;48.572;7.838;2022-12-15T13:41:42;0.70;99.90
14192;DHT22;7177;48.572;7.838;2022-12-15T13:46:46;0.70;99.90
14192;DHT22;7177;48.572;7.838;2022-12-15T13:49:32;0.60;99.90
14192;DHT22;7177;48.572;7.838;2022-12-15T13:52:02;0.70;99.90
14192;DHT22;7177;48.572;7.838;2022-12-15T13:54:34;0.80;99.90
14192;DHT22;7177;48.572;7.838;2022-12-15T13:57:15;0.80;99.90
14192;DHT22;7177;48.572;7.838;2022-12-15T13:59:46;0.70;99.90
14192;DHT22;7177;48.572;7.838;2022-12-15T14:07:30;0.70;99.90
14192;DHT22;7177;48.572;7.838;2022-12-15T14:09:55;0.60;99.90
14192;DHT22;7177;48.572;7.838;2022-12-15T14:12:21;0.60;99.90
14192;DHT22;7177;48.572;7.838;2022-12-15T14:14:48;0.60;99.90
14192;DHT22;7177;48.572;7.838;2022-12-15T14:17:15;0.60;99.90
14192;DHT22;7177;48.572;7.838;2022-12-15T14:19:44;0.60;99.90
14192;DHT22;7177;48.572;7.838;2022-12-15T14:22:22;0.50;99.90
14192;DHT22;7177;48.572;7.838;2022-12-15T14:24:49;0.40;99.90
14192;DHT22;7177;48.572;7.838;2022-12-15T14:27:27;0.50;99.90
14192;DHT22;7177;48.572;7.838;2022-12-15T14:30:26;0.50;99.90
14192;DHT22;7177;48.572;7.838;2022-12-15T14:33:06;0.40;99.90
14192;DHT22;7177;48.572;7.838;2022-12-15T14:35:38;0.40;99.90
14192;DHT22;7177;48.572;7.838;2022-12-15T14:38:07;0.40;99.90
14192;DHT22;7177;48.572;7.838;2022-12-15T14:40:37;0.40;99.90
14192;DHT22;7177;48.572;7.838;2022-12-15T14:43:08;0.30;99.90
14192;DHT22;7177;48.572;7.838;2022-12-15T14:45:35;0.30;99.90
14192;DHT22;7177;48.572;7.838;2022-12-15T14:48:06;0.20;99.90
14192;DHT22;7177;48.572;7.838;2022-12-15T14:50:32;0.20;99.90
14192;DHT22;7177;48.572;7.838;2022-12-15T14:53:01;0.10;99.90
14192;DHT22;7177;48.572;7.838;2022-12-15T14:55:33;0.10;99.90
14192;DHT22;7177;48.572;7.838;2022-12-15T14:57:59;0.10;99.90
14192;DHT22;7177;48.572;7.838;2022-12-15T15:00:35;0.10;99.90
14192;DHT22;7177;48.572;7.838;2022-12-15T15:05:40;0.00;99.90
14192;DHT22;7177;48.572;7.838;2022-12-15T15:08:53;-0.10;99.90
14192;DHT22;7177;48.572;7.838;2022-12-15T15:11:21;0.00;99.90
14192;DHT22;7177;48.572;7.838;2022-12-15T15:13:47;0.00;99.90
14192;DHT22;7177;48.572;7.838;2022-12-15T15:16:16;0.00;99.90
14192;DHT22;7177;48.572;7.838;2022-12-15T15:18:42;0.00;99.90
14192;DHT22;7177;48.572;7.838;2022-12-15T15:21:16;0.00;99.90
14192;DHT22;7177;48.572;7.838;2022-12-15T15:23:57;-0.10;99.90
14192;DHT22;7177;48.572;7.838;2022-12-15T15:26:24;-0.20;99.90
14192;DHT22;7177;48.572;7.838;2022-12-15T15:28:50;-0.30;99.90
14192;DHT22;7177;48.572;7.838;2022-12-15T15:33:52;-0.30;99.90
14192;DHT22;7177;48.572;7.838;2022-12-15T15:36:19;-0.30;99.90
14192;DHT22;7177;48.572;7.838;2022-12-15T15:38:46;-0.30;99.90
14192;DHT22;7177;48.572;7.838;2022-12-15T15:41:20;-0.30;99.90
14192;DHT22;7177;48.572;7.838;2022-12-15T15:43:46;-0.30;99.90
14192;DHT22;7177;48.572;7.838;2022-12-15T15:46:15;-0.30;99.90
14192;DHT22;7177;48.572;7.838;2022-12-15T15:49:27;-0.30;99.90
14192;DHT22;7177;48.572;7.838;2022-12-15T15:51:34;-0.30;99.90
14192;DHT22;7177;48.572;7.838;2022-12-15T15:54:03;-0.40;99.90
14192;DHT22;7177;48.572;7.838;2022-12-15T15:56:30;-0.40;99.90
14192;DHT22;7177;48.572;7.838;2022-12-15T15:58:57;-0.40;99.90
14192;DHT22;7177;48.572;7.838;2022-12-15T16:01:23;-0.40;99.90
14192;DHT22;7177;48.572;7.838;2022-12-15T16:03:49;-0.40;99.90
14192;DHT22;7177;48.572;7.838;2022-12-15T16:06:17;-0.40;99.90
14192;DHT22;7177;48.572;7.838;2022-12-15T16:08:45;-0.50;99.90
14192;DHT22;7177;48.572;7.838;2022-12-15T16:11:11;-0.50;99.90
14192;DHT22;7177;48.572;7.838;2022-12-15T16:13:37;-0.50;99.90
14192;DHT22;7177;48.572;7.838;2022-12-15T16:16:04;-0.50;99.90
14192;DHT22;7177;48.572;7.838;2022-12-15T16:18:29;-0.50;99.90
14192;DHT22;7177;48.572;7.838;2022-12-15T16:20:56;-0.40;99.90
14192;DHT22;7177;48.572;7.838;2022-12-15T16:23:25;-0.50;99.90
14192;DHT22;7177;48.572;7.838;2022-12-15T16:26:00;-0.40;99.90
14192;DHT22;7177;48.572;7.838;2022-12-15T16:28:28;-0.60;99.90
14192;DHT22;7177;48.572;7.838;2022-12-15T16:30:55;-0.50;99.90
14192;DHT22;7177;48.572;7.838;2022-12-15T16:33:23;-0.50;99.90
14192;DHT22;7177;48.572;7.838;2022-12-15T16:35:49;-0.60;99.90
14192;DHT22;7177;48.572;7.838;2022-12-15T16:38:25;-0.70;99.90
14192;DHT22;7177;48.572;7.838;2022-12-15T16:40:51;-0.60;99.90
14192;DHT22;7177;48.572;7.838;2022-12-15T16:43:22;-0.70;99.90
14192;DHT22;7177;48.572;7.838;2022-12-15T16:45:52;-0.70;99.90
14192;DHT22;7177;48.572;7.838;2022-12-15T16:48:19;-0.70;99.90
14192;DHT22;7177;48.572;7.838;2022-12-15T16:50:49;-0.70;99.90
14192;DHT22;7177;48.572;7.838;2022-12-15T16:53:17;-0.70;99.90
14192;DHT22;7177;48.572;7.838;2022-12-15T16:55:44;-0.70;99.90
14192;DHT22;7177;48.572;7.838;2022-12-15T16:58:14;-0.80;99.90
14192;DHT22;7177;48.572;7.838;2022-12-15T17:00:40;-0.80;99.90
14192;DHT22;7177;48.572;7.838;2022-12-15T17:03:11;-0.90;99.90
14192;DHT22;7177;48.572;7.838;2022-12-15T17:05:37;-0.90;99.90
14192;DHT22;7177;48.572;7.838;2022-12-15T17:08:06;-1.00;99.90
14192;DHT22;7177;48.572;7.838;2022-12-15T17:10:32;-0.90;99.90
14192;DHT22;7177;48.572;7.838;2022-12-15T17:13:09;-1.00;99.90
14192;DHT22;7177;48.572;7.838;2022-12-15T17:15:38;-1.00;99.90
14192;DHT22;7177;48.572;7.838;2022-12-15T17:18:04;-0.90;99.90
14192;DHT22;7177;48.572;7.838;2022-12-15T17:20:30;-1.00;99.90
14192;DHT22;7177;48.572;7.838;2022-12-15T17:23:03;-1.00;99.90
14192;DHT22;7177;48.572;7.838;2022-12-15T17:25:34;-1.10;99.90
14192;DHT22;7177;48.572;7.838;2022-12-15T17:28:01;-1.00;99.90
14192;DHT22;7177;48.572;7.838;2022-12-15T17:30:28;-1.00;99.90
14192;DHT22;7177;48.572;7.838;2022-12-15T17:32:53;-1.00;99.90
14192;DHT22;7177;48.572;7.838;2022-12-15T17:35:19;-1.10;99.90
14192;DHT22;7177;48.572;7.838;2022-12-15T17:37:44;-1.10;99.90
14192;DHT22;7177;48.572;7.838;2022-12-15T17:40:21;-1.10;99.90
14192;DHT22;7177;48.572;7.838;2022-12-15T17:42:48;-1.20;99.90
14192;DHT22;7177;48.572;7.838;2022-12-15T17:45:22;-1.20;99.90
14192;DHT22;7177;48.572;7.838;2022-12-15T17:47:49;-1.20;99.90
14192;DHT22;7177;48.572;7.838;2022-12-15T17:50:16;-1.20;99.90
14192;DHT22;7177;48.572;7.838;2022-12-15T17:52:43;-1.30;99.90
14192;DHT22;7177;48.572;7.838;2022-12-15T17:55:24;-1.30;99.90
14192;DHT22;7177;48.572;7.838;2022-12-15T17:57:51;-1.40;99.90
14192;DHT22;7177;48.572;7.838;2022-12-15T18:00:36;-1.40;99.90
14192;DHT22;7177;48.572;7.838;2022-12-15T18:03:03;-1.40;99.90
14192;DHT22;7177;48.572;7.838;2022-12-15T18:05:29;-1.40;99.90
14192;DHT22;7177;48.572;7.838;2022-12-15T18:07:57;-1.30;99.90
14192;DHT22;7177;48.572;7.838;2022-12-15T18:10:28;-1.30;99.90
14192;DHT22;7177;48.572;7.838;2022-12-15T18:12:54;-1.30;99.90
14192;DHT22;7177;48.572;7.838;2022-12-15T18:15:30;-1.30;99.90
14192;DHT22;7177;48.572;7.838;2022-12-15T18:17:57;-1.40;99.90
14192;DHT22;7177;48.572;7.838;2022-12-15T18:20:24;-1.30;99.90